createdAt,value
2023-05-25T00:00:57.536Z,6.04
2023-05-25T00:01:42.790Z,6.04
2023-05-25T00:02:42.946Z,6.06
2023-05-25T00:03:42.816Z,6.00
2023-05-25T00:04:42.815Z,5.96
2023-05-25T00:05:42.845Z,5.93
2023-05-25T00:06:42.643Z,5.96
2023-05-25T00:07:42.620Z,5.89
2023-05-25T00:08:42.606Z,5.88
2023-05-25T00:09:42.574Z,5.89
2023-05-25T00:10:42.552Z,5.88
2023-05-25T00:11:42.524Z,5.88
2023-05-25T00:12:42.488Z,5.83
2023-05-25T00:13:42.476Z,5.78
2023-05-25T00:14:42.440Z,5.82
2023-05-25T00:15:42.618Z,5.82
2023-05-25T00:16:42.409Z,5.73
2023-05-25T00:17:42.396Z,5.68
2023-05-25T00:18:42.344Z,5.70
2023-05-25T00:19:42.354Z,5.60
2023-05-25T00:20:42.350Z,5.64
2023-05-25T00:21:42.273Z,5.53
2023-05-25T00:22:42.237Z,5.59
2023-05-25T00:23:42.231Z,5.52
2023-05-25T00:24:42.205Z,5.52
2023-05-25T00:25:42.669Z,5.53
2023-05-25T00:26:42.158Z,5.67
2023-05-25T00:27:42.130Z,5.48
2023-05-25T00:28:42.102Z,5.48
2023-05-25T00:29:42.079Z,5.49
2023-05-25T00:30:42.077Z,5.38
2023-05-25T00:31:42.030Z,5.52
2023-05-25T00:32:42.695Z,5.49
2023-05-25T00:33:42.016Z,5.53
2023-05-25T00:34:41.949Z,5.55
2023-05-25T00:35:42.039Z,5.52
2023-05-25T00:36:41.937Z,5.57
2023-05-25T00:37:42.102Z,5.46
2023-05-25T00:38:41.855Z,5.48
2023-05-25T00:39:41.838Z,5.32
2023-05-25T00:40:41.808Z,5.34
2023-05-25T00:41:41.824Z,5.35
2023-05-25T00:42:41.754Z,5.37
2023-05-25T00:43:41.737Z,5.43
2023-05-25T00:44:41.719Z,5.35
2023-05-25T00:45:41.774Z,5.38
2023-05-25T00:46:41.685Z,5.35
2023-05-25T00:47:41.681Z,5.37
2023-05-25T00:48:41.632Z,5.27
2023-05-25T00:49:41.588Z,5.31
2023-05-25T00:50:41.572Z,5.35
2023-05-25T00:51:41.564Z,5.37
2023-05-25T00:52:41.521Z,5.43
2023-05-25T00:53:41.501Z,5.45
2023-05-25T00:54:41.463Z,5.53
2023-05-25T00:55:41.585Z,5.50
2023-05-25T00:56:41.445Z,5.49
2023-05-25T00:57:41.406Z,5.50
2023-05-25T00:58:41.365Z,5.52
2023-05-25T00:59:41.423Z,5.53
2023-05-25T01:00:41.343Z,5.43
2023-05-25T01:01:41.309Z,5.38
2023-05-25T01:02:41.310Z,5.28
2023-05-25T01:03:41.331Z,5.30
2023-05-25T01:04:41.218Z,5.34
2023-05-25T01:05:41.361Z,5.17
2023-05-25T01:06:41.175Z,5.17
2023-05-25T01:07:41.140Z,5.20
2023-05-25T01:08:41.123Z,5.13
2023-05-25T01:09:41.099Z,5.25
2023-05-25T01:10:41.080Z,5.20
2023-05-25T01:11:41.044Z,5.14
2023-05-25T01:12:41.042Z,5.23
2023-05-25T01:13:40.992Z,5.19
2023-05-25T01:14:40.996Z,5.19
2023-05-25T01:15:40.983Z,5.09
2023-05-25T01:16:40.998Z,5.09
2023-05-25T01:17:40.972Z,5.10
2023-05-25T01:18:40.881Z,5.22
2023-05-25T01:19:40.959Z,5.20
2023-05-25T01:20:40.859Z,5.20
2023-05-25T01:21:40.804Z,5.17
2023-05-25T01:22:40.777Z,5.32
2023-05-25T01:23:40.749Z,5.22
2023-05-25T01:24:40.721Z,5.22
2023-05-25T01:25:41.771Z,5.12
2023-05-25T01:26:40.671Z,5.27
2023-05-25T01:27:40.656Z,5.16
2023-05-25T01:28:40.625Z,5.30
2023-05-25T01:29:40.603Z,5.19
2023-05-25T01:30:40.572Z,5.31
2023-05-25T01:31:40.592Z,5.14
2023-05-25T01:32:40.579Z,5.16
2023-05-25T01:33:40.534Z,5.14
2023-05-25T01:34:40.478Z,5.12
2023-05-25T01:35:40.454Z,5.05
2023-05-25T01:36:40.429Z,5.02
2023-05-25T01:37:40.402Z,5.12
2023-05-25T01:38:40.374Z,5.04
2023-05-25T01:39:40.353Z,5.09
2023-05-25T01:40:40.336Z,5.05
2023-05-25T01:41:40.302Z,5.13
2023-05-25T01:42:40.306Z,5.12
2023-05-25T01:43:40.256Z,5.22
2023-05-25T01:44:40.239Z,5.22
2023-05-25T01:45:40.237Z,5.13
2023-05-25T01:46:40.253Z,5.20
2023-05-25T01:47:40.189Z,5.17
2023-05-25T01:48:40.125Z,5.13
2023-05-25T01:49:40.101Z,5.14
2023-05-25T01:50:40.105Z,5.14
2023-05-25T01:51:40.053Z,5.07
2023-05-25T01:52:40.062Z,5.12
2023-05-25T01:53:40.022Z,5.12
2023-05-25T01:54:39.987Z,5.05
2023-05-25T01:55:39.950Z,5.17
2023-05-25T01:56:39.948Z,5.02
2023-05-25T01:57:39.902Z,5.04
2023-05-25T01:58:39.884Z,5.04
2023-05-25T01:59:39.855Z,5.12
2023-05-25T02:00:39.831Z,5.04
2023-05-25T02:01:39.823Z,4.95
2023-05-25T02:02:39.840Z,4.99
2023-05-25T02:03:39.753Z,5.01
2023-05-25T02:04:39.809Z,5.01
2023-05-25T02:05:39.710Z,4.99
2023-05-25T02:06:39.690Z,5.01
2023-05-25T02:07:39.657Z,5.04
2023-05-25T02:08:39.647Z,5.05
2023-05-25T02:09:39.616Z,4.99
2023-05-25T02:10:39.587Z,5.05
2023-05-25T02:11:39.559Z,5.01
2023-05-25T02:12:39.548Z,5.04
2023-05-25T02:13:39.510Z,5.04
2023-05-25T02:14:39.480Z,5.04
2023-05-25T02:15:39.498Z,5.07
2023-05-25T02:16:39.432Z,5.01
2023-05-25T02:17:39.446Z,4.99
2023-05-25T02:18:39.388Z,5.01
2023-05-25T02:19:39.364Z,5.01
2023-05-25T02:20:39.382Z,5.01
2023-05-25T02:21:39.310Z,5.02
2023-05-25T02:22:39.288Z,4.89
2023-05-25T02:23:39.263Z,4.86
2023-05-25T02:24:39.250Z,4.80
2023-05-25T02:25:39.215Z,4.89
2023-05-25T02:26:39.215Z,4.84
2023-05-25T02:27:39.162Z,4.76
2023-05-25T02:28:39.148Z,4.72
2023-05-25T02:29:39.117Z,4.75
2023-05-25T02:30:39.104Z,4.70
2023-05-25T02:31:39.110Z,4.79
2023-05-25T02:32:39.062Z,4.57
2023-05-25T02:33:39.013Z,4.61
2023-05-25T02:34:38.998Z,4.67
2023-05-25T02:35:38.984Z,4.55
2023-05-25T02:36:38.939Z,4.61
2023-05-25T02:37:38.912Z,4.65
2023-05-25T02:38:38.885Z,4.69
2023-05-25T02:39:38.868Z,4.65
2023-05-25T02:40:38.857Z,4.79
2023-05-25T02:41:38.849Z,4.79
2023-05-25T02:42:38.813Z,4.80
2023-05-25T02:43:38.767Z,4.69
2023-05-25T02:44:38.741Z,4.67
2023-05-25T02:45:38.717Z,4.70
2023-05-25T02:46:38.710Z,4.75
2023-05-25T02:47:38.683Z,4.67
2023-05-25T02:48:38.640Z,4.64
2023-05-25T02:49:38.613Z,4.58
2023-05-25T02:50:38.588Z,4.54
2023-05-25T02:51:38.558Z,4.51
2023-05-25T02:52:38.539Z,4.58
2023-05-25T02:53:38.526Z,4.51
2023-05-25T02:54:38.515Z,4.59
2023-05-25T02:55:38.469Z,4.73
2023-05-25T02:56:38.453Z,4.67
2023-05-25T02:57:38.418Z,4.58
2023-05-25T02:58:38.394Z,4.59
2023-05-25T02:59:38.362Z,4.62
2023-05-25T03:00:38.382Z,4.47
2023-05-25T03:01:38.317Z,4.58
2023-05-25T03:02:38.337Z,4.43
2023-05-25T03:03:38.290Z,4.52
2023-05-25T03:04:38.242Z,4.51
2023-05-25T03:05:38.226Z,4.58
2023-05-25T03:06:38.224Z,4.54
2023-05-25T03:07:38.180Z,4.44
2023-05-25T03:08:38.148Z,4.51
2023-05-25T03:09:38.120Z,4.46
2023-05-25T03:10:38.115Z,4.52
2023-05-25T03:11:38.070Z,4.40
2023-05-25T03:12:38.048Z,4.36
2023-05-25T03:13:38.046Z,4.36
2023-05-25T03:14:37.990Z,4.43
2023-05-25T03:15:37.965Z,4.40
2023-05-25T03:16:37.956Z,4.33
2023-05-25T03:17:38.029Z,4.29
2023-05-25T03:18:37.905Z,4.24
2023-05-25T03:19:37.868Z,4.37
2023-05-25T03:20:37.905Z,4.26
2023-05-25T03:21:37.828Z,4.28
2023-05-25T03:22:37.797Z,4.29
2023-05-25T03:23:37.776Z,4.28
2023-05-25T03:24:37.745Z,4.32
2023-05-25T03:25:37.728Z,4.19
2023-05-25T03:26:37.703Z,4.34
2023-05-25T03:27:37.664Z,4.33
2023-05-25T03:28:37.694Z,4.51
2023-05-25T03:29:37.632Z,4.43
2023-05-25T03:30:37.616Z,4.52
2023-05-25T03:31:37.673Z,4.44
2023-05-25T03:32:37.552Z,4.59
2023-05-25T03:33:37.519Z,4.43
2023-05-25T03:34:37.534Z,4.51
2023-05-25T03:35:37.471Z,4.51
2023-05-25T03:36:37.539Z,4.40
2023-05-25T03:37:37.419Z,4.40
2023-05-25T03:38:37.394Z,4.40
2023-05-25T03:39:37.373Z,4.33
2023-05-25T03:40:37.347Z,4.33
2023-05-25T03:41:37.328Z,4.36
2023-05-25T03:42:37.294Z,4.28
2023-05-25T03:43:37.267Z,4.21
2023-05-25T03:44:39.242Z,4.34
2023-05-25T03:45:37.218Z,4.28
2023-05-25T03:46:37.273Z,4.25
2023-05-25T03:47:37.252Z,4.26
2023-05-25T03:48:37.175Z,4.24
2023-05-25T03:49:37.125Z,4.32
2023-05-25T03:50:37.101Z,4.39
2023-05-25T03:51:37.071Z,4.32
2023-05-25T03:52:37.075Z,4.40
2023-05-25T03:53:37.043Z,4.51
2023-05-25T03:54:37.006Z,4.51
2023-05-25T03:55:36.987Z,4.44
2023-05-25T03:56:36.956Z,4.42
2023-05-25T03:57:36.923Z,4.40
2023-05-25T03:58:36.910Z,4.32
2023-05-25T03:59:37.594Z,4.33
2023-05-25T04:00:36.849Z,4.26
2023-05-25T04:01:36.823Z,4.34
2023-05-25T04:02:36.888Z,4.34
2023-05-25T04:03:37.015Z,4.43
2023-05-25T04:04:36.821Z,4.50
2023-05-25T04:05:36.730Z,4.52
2023-05-25T04:06:36.699Z,4.46
2023-05-25T04:07:36.692Z,4.52
2023-05-25T04:08:36.659Z,4.43
2023-05-25T04:09:36.638Z,4.43
2023-05-25T04:10:36.642Z,4.47
2023-05-25T04:11:36.570Z,4.59
2023-05-25T04:12:36.553Z,4.65
2023-05-25T04:13:36.544Z,4.58
2023-05-25T04:14:36.504Z,4.70
2023-05-25T04:15:36.471Z,4.72
2023-05-25T04:16:36.490Z,4.72
2023-05-25T04:17:39.127Z,4.75
2023-05-25T04:18:36.405Z,4.73
2023-05-25T04:19:36.380Z,4.83
2023-05-25T04:20:36.393Z,4.86
2023-05-25T04:21:36.378Z,4.83
2023-05-25T04:22:36.298Z,4.83
2023-05-25T04:23:36.284Z,4.84
2023-05-25T04:24:36.252Z,4.94
2023-05-25T04:25:36.232Z,4.91
2023-05-25T04:26:36.196Z,4.95
2023-05-25T04:27:36.170Z,4.94
2023-05-25T04:28:36.146Z,4.91
2023-05-25T04:29:36.133Z,4.98
2023-05-25T04:30:36.135Z,4.98
2023-05-25T04:31:36.106Z,5.04
2023-05-25T04:32:36.074Z,5.02
2023-05-25T04:33:36.022Z,5.05
2023-05-25T04:34:36.007Z,5.05
2023-05-25T04:35:35.980Z,5.19
2023-05-25T04:36:35.966Z,5.22
2023-05-25T04:37:35.949Z,5.23
2023-05-25T04:38:35.908Z,5.20
2023-05-25T04:39:35.876Z,5.37
2023-05-25T04:40:35.863Z,5.48
2023-05-25T04:41:35.834Z,5.64
2023-05-25T04:42:35.803Z,5.60
2023-05-25T04:43:35.783Z,5.67
2023-05-25T04:44:35.764Z,5.77
2023-05-25T04:45:35.779Z,5.82
2023-05-25T04:46:35.709Z,5.85
2023-05-25T04:47:35.712Z,5.89
2023-05-25T04:48:35.665Z,6.00
2023-05-25T04:49:35.649Z,5.96
2023-05-25T04:50:35.620Z,5.96
2023-05-25T04:51:35.938Z,5.96
2023-05-25T04:52:35.553Z,6.01
2023-05-25T04:53:35.577Z,6.09
2023-05-25T04:54:35.517Z,6.04
2023-05-25T04:55:35.487Z,6.10
2023-05-25T04:56:35.461Z,6.09
2023-05-25T04:57:35.456Z,6.11
2023-05-25T04:58:35.409Z,6.22
2023-05-25T04:59:35.420Z,6.29
2023-05-25T05:00:35.364Z,6.32
2023-05-25T05:01:35.362Z,6.36
2023-05-25T05:02:35.361Z,6.36
2023-05-25T05:03:35.307Z,6.38
2023-05-25T05:04:35.293Z,6.56
2023-05-25T05:05:35.236Z,6.62
2023-05-25T05:06:35.217Z,6.76
2023-05-25T05:07:35.195Z,6.79
2023-05-25T05:08:35.175Z,6.95
2023-05-25T05:09:35.139Z,6.97
2023-05-25T05:10:35.126Z,7.04
2023-05-25T05:11:35.097Z,7.13
2023-05-25T05:12:35.069Z,7.19
2023-05-25T05:13:35.046Z,7.19
2023-05-25T05:14:35.022Z,7.29
2023-05-25T05:15:34.993Z,7.35
2023-05-25T05:16:35.216Z,7.41
2023-05-25T05:17:35.032Z,7.42
2023-05-25T05:18:34.980Z,7.59
2023-05-25T05:19:34.899Z,7.59
2023-05-25T05:20:35.018Z,7.62
2023-05-25T05:21:34.859Z,7.62
2023-05-25T05:22:34.828Z,7.66
2023-05-25T05:23:34.819Z,7.69
2023-05-25T05:24:34.796Z,7.67
2023-05-25T05:25:34.754Z,7.72
2023-05-25T05:26:51.853Z,7.66
2023-05-25T05:27:34.756Z,7.75
2023-05-25T05:28:34.698Z,7.90
2023-05-25T05:29:34.653Z,7.97
2023-05-25T05:30:34.649Z,8.15
2023-05-25T05:31:34.642Z,8.21
2023-05-25T05:32:34.682Z,8.44
2023-05-25T05:33:34.687Z,8.48
2023-05-25T05:34:34.539Z,8.62
2023-05-25T05:35:34.530Z,8.53
2023-05-25T05:36:42.099Z,8.65
2023-05-25T05:37:34.468Z,8.68
2023-05-25T05:38:34.442Z,8.79
2023-05-25T05:39:34.412Z,8.76
2023-05-25T05:40:34.407Z,8.83
2023-05-25T05:41:34.373Z,8.94
2023-05-25T05:42:34.360Z,9.13
2023-05-25T05:43:34.326Z,9.15
2023-05-25T05:44:34.304Z,9.13
2023-05-25T05:45:34.281Z,9.20
2023-05-25T05:46:34.331Z,9.27
2023-05-25T05:47:34.291Z,9.32
2023-05-25T05:48:34.207Z,9.32
2023-05-25T05:49:34.185Z,9.43
2023-05-25T05:50:34.173Z,9.49
2023-05-25T05:51:34.152Z,9.56
2023-05-25T05:52:34.130Z,9.61
2023-05-25T05:53:34.094Z,9.73
2023-05-25T05:54:34.071Z,9.76
2023-05-25T05:55:34.045Z,9.86
2023-05-25T05:56:34.029Z,9.82
2023-05-25T05:57:33.990Z,10.00
2023-05-25T05:58:33.977Z,10.06
2023-05-25T05:59:33.951Z,10.15
2023-05-25T06:00:33.943Z,10.25
2023-05-25T06:01:33.899Z,10.25
2023-05-25T06:02:33.967Z,10.18
2023-05-25T06:03:33.882Z,10.34
2023-05-25T06:04:33.839Z,10.51
2023-05-25T06:05:33.880Z,10.58
2023-05-25T06:06:33.793Z,10.55
2023-05-25T06:07:33.807Z,10.73
2023-05-25T06:08:33.744Z,10.77
2023-05-25T06:09:33.726Z,10.84
2023-05-25T06:10:33.701Z,10.91
2023-05-25T06:11:33.682Z,10.92
2023-05-25T06:12:33.659Z,11.10
2023-05-25T06:13:33.628Z,11.16
2023-05-25T06:14:33.605Z,11.21
2023-05-25T06:15:33.579Z,11.39
2023-05-25T06:16:33.594Z,11.54
2023-05-25T06:17:33.552Z,11.54
2023-05-25T06:18:33.517Z,11.70
2023-05-25T06:19:33.494Z,11.72
2023-05-25T06:20:33.485Z,11.85
2023-05-25T06:21:34.242Z,11.82
2023-05-25T06:22:33.550Z,11.86
2023-05-25T06:23:33.398Z,12.02
2023-05-25T06:24:33.374Z,12.16
2023-05-25T06:25:33.359Z,12.15
2023-05-25T06:26:33.331Z,12.19
2023-05-25T06:27:33.310Z,12.31
2023-05-25T06:28:33.305Z,12.38
2023-05-25T06:29:33.266Z,12.38
2023-05-25T06:30:33.284Z,12.51
2023-05-25T06:31:33.268Z,12.64
2023-05-25T06:32:33.215Z,12.59
2023-05-25T06:33:33.178Z,12.75
2023-05-25T06:34:33.158Z,12.78
2023-05-25T06:35:33.136Z,12.81
2023-05-25T06:36:33.116Z,12.88
2023-05-25T06:37:33.093Z,12.97
2023-05-25T06:38:33.094Z,12.96
2023-05-25T06:39:33.050Z,12.89
2023-05-25T06:40:33.052Z,13.00
2023-05-25T06:41:32.999Z,13.07
2023-05-25T06:42:32.980Z,13.22
2023-05-25T06:43:32.970Z,13.15
2023-05-25T06:44:32.925Z,13.21
2023-05-25T06:45:32.913Z,13.14
2023-05-25T06:46:33.004Z,13.14
2023-05-25T06:47:32.973Z,13.14
2023-05-25T06:48:32.853Z,13.17
2023-05-25T06:49:32.840Z,13.37
2023-05-25T06:50:32.800Z,13.46
2023-05-25T06:51:32.780Z,13.54
2023-05-25T06:52:32.755Z,13.41
2023-05-25T06:53:32.737Z,13.47
2023-05-25T06:54:32.714Z,13.52
2023-05-25T06:55:32.694Z,13.71
2023-05-25T06:56:32.674Z,13.77
2023-05-25T06:57:32.652Z,13.94
2023-05-25T06:58:32.648Z,13.98
2023-05-25T06:59:32.606Z,14.01
2023-05-25T07:00:32.577Z,14.14
2023-05-25T07:01:32.616Z,14.19
2023-05-25T07:02:32.553Z,14.44
2023-05-25T07:03:32.527Z,14.50
2023-05-25T07:04:32.545Z,14.80
2023-05-25T07:05:32.486Z,14.84
2023-05-25T07:06:32.457Z,15.02
2023-05-25T07:07:32.453Z,15.08
2023-05-25T07:08:32.426Z,15.35
2023-05-25T07:09:32.407Z,15.38
2023-05-25T07:10:32.376Z,15.67
2023-05-25T07:11:32.355Z,15.84
2023-05-25T07:12:32.363Z,15.92
2023-05-25T07:13:32.337Z,15.86
2023-05-25T07:14:32.333Z,15.82
2023-05-25T07:15:32.300Z,15.82
2023-05-25T07:16:32.314Z,15.78
2023-05-25T07:17:32.267Z,15.68
2023-05-25T07:18:32.819Z,15.81
2023-05-25T07:19:32.201Z,15.78
2023-05-25T07:20:32.191Z,15.72
2023-05-25T07:21:32.157Z,15.74
2023-05-25T07:22:32.135Z,15.89
2023-05-25T07:23:32.117Z,15.94
2023-05-25T07:24:32.143Z,16.12
2023-05-25T07:25:32.083Z,16.20
2023-05-25T07:26:32.066Z,16.27
2023-05-25T07:27:32.048Z,16.48
2023-05-25T07:28:32.016Z,16.75
2023-05-25T07:29:32.006Z,16.96
2023-05-25T07:30:31.976Z,17.15
2023-05-25T07:31:31.989Z,17.29
2023-05-25T07:32:32.022Z,17.50
2023-05-25T07:33:31.927Z,17.87
2023-05-25T07:34:32.794Z,17.88
2023-05-25T07:35:31.897Z,18.17
2023-05-25T07:36:31.878Z,18.18
2023-05-25T07:37:31.860Z,18.27
2023-05-25T07:38:31.837Z,18.49
2023-05-25T07:39:31.843Z,18.59
2023-05-25T07:40:31.803Z,18.49
2023-05-25T07:41:31.834Z,18.43
2023-05-25T07:42:31.764Z,18.43
2023-05-25T07:43:31.748Z,18.29
2023-05-25T07:44:31.729Z,18.36
2023-05-25T07:45:31.718Z,18.44
2023-05-25T07:46:31.720Z,18.58
2023-05-25T07:47:31.710Z,18.43
2023-05-25T07:48:31.664Z,18.36
2023-05-25T07:49:31.650Z,18.24
2023-05-25T07:50:31.969Z,18.43
2023-05-25T07:51:31.656Z,18.50
2023-05-25T07:52:31.595Z,18.70
2023-05-25T07:53:31.615Z,18.84
2023-05-25T07:54:31.565Z,19.05
2023-05-25T07:55:31.556Z,19.17
2023-05-25T07:56:31.526Z,19.39
2023-05-25T07:57:31.521Z,19.51
2023-05-25T07:58:31.508Z,19.69
2023-05-25T07:59:31.490Z,20.02
2023-05-25T08:00:31.469Z,20.03
2023-05-25T08:01:31.453Z,20.10
2023-05-25T08:02:31.560Z,19.97
2023-05-25T08:03:44.266Z,19.61
2023-05-25T08:04:31.498Z,19.68
2023-05-25T08:05:31.407Z,19.72
2023-05-25T08:06:31.371Z,19.86
2023-05-25T08:07:31.821Z,19.61
2023-05-25T08:08:31.329Z,19.70
2023-05-25T08:09:31.337Z,19.53
2023-05-25T08:10:31.340Z,19.39
2023-05-25T08:11:31.288Z,19.02
2023-05-25T08:12:46.888Z,19.10
2023-05-25T08:13:31.260Z,18.98
2023-05-25T08:14:31.225Z,18.65
2023-05-25T08:15:31.226Z,18.70
2023-05-25T08:16:31.396Z,18.52
2023-05-25T08:17:31.302Z,18.52
2023-05-25T08:18:31.168Z,18.47
2023-05-25T08:19:31.164Z,18.39
2023-05-25T08:20:31.165Z,18.50
2023-05-25T08:21:33.365Z,18.58
2023-05-25T08:22:31.098Z,18.70
2023-05-25T08:23:31.091Z,18.54
2023-05-25T08:24:31.060Z,18.54
2023-05-25T08:25:31.049Z,18.68
2023-05-25T08:26:41.689Z,18.72
2023-05-25T08:27:35.234Z,18.52
2023-05-25T08:28:30.990Z,18.50
2023-05-25T08:29:30.977Z,18.70
2023-05-25T08:30:30.962Z,18.82
2023-05-25T08:31:31.118Z,19.10
2023-05-25T08:32:30.965Z,19.17
2023-05-25T08:33:30.913Z,19.29
2023-05-25T08:34:30.889Z,19.40
2023-05-25T08:35:30.885Z,19.58
2023-05-25T08:36:30.856Z,19.84
2023-05-25T08:37:30.853Z,20.02
2023-05-25T08:38:30.825Z,19.94
2023-05-25T08:39:31.849Z,20.13
2023-05-25T08:40:30.799Z,20.02
2023-05-25T08:41:30.783Z,20.12
2023-05-25T08:42:30.770Z,19.75
2023-05-25T08:43:30.747Z,19.86
2023-05-25T08:44:30.739Z,19.84
2023-05-25T08:45:34.787Z,19.98
2023-05-25T08:46:30.699Z,20.03
2023-05-25T08:47:30.721Z,20.03
2023-05-25T08:48:40.075Z,20.28
2023-05-25T08:49:30.666Z,20.24
2023-05-25T08:50:30.635Z,20.20
2023-05-25T08:51:30.634Z,20.24
2023-05-25T08:52:30.611Z,20.21
2023-05-25T08:53:30.594Z,20.13
2023-05-25T08:54:30.572Z,20.13
2023-05-25T08:55:31.306Z,20.15
2023-05-25T08:56:30.547Z,20.31
2023-05-25T08:57:30.545Z,20.41
2023-05-25T08:58:30.530Z,20.69
2023-05-25T08:59:30.511Z,20.68
2023-05-25T09:00:30.492Z,20.53
2023-05-25T09:01:30.494Z,20.53
2023-05-25T09:02:31.189Z,20.69
2023-05-25T09:03:30.541Z,20.56
2023-05-25T09:04:30.557Z,20.98
2023-05-25T09:05:30.453Z,21.14
2023-05-25T09:06:30.411Z,21.26
2023-05-25T09:07:30.423Z,21.57
2023-05-25T09:08:30.368Z,21.69
2023-05-25T09:09:30.367Z,21.98
2023-05-25T09:10:30.349Z,22.31
2023-05-25T09:11:38.972Z,21.61
2023-05-25T09:12:30.308Z,21.71
2023-05-25T09:13:30.313Z,21.99
2023-05-25T09:14:30.282Z,21.99
2023-05-25T09:15:30.320Z,22.14
2023-05-25T09:16:30.266Z,22.19
2023-05-25T09:17:30.429Z,22.19
2023-05-25T09:18:30.281Z,22.56
2023-05-25T09:19:30.219Z,22.72
2023-05-25T09:20:30.233Z,22.93
2023-05-25T09:21:30.193Z,22.75
2023-05-25T09:22:30.175Z,22.10
2023-05-25T09:23:30.173Z,21.81
2023-05-25T09:24:30.151Z,22.01
2023-05-25T09:25:30.129Z,22.35
2023-05-25T09:26:30.169Z,22.54
2023-05-25T09:27:30.230Z,22.75
2023-05-25T09:28:30.109Z,23.02
2023-05-25T09:29:30.093Z,23.09
2023-05-25T09:30:30.080Z,22.77
2023-05-25T09:31:30.089Z,22.74
2023-05-25T09:32:30.111Z,22.78
2023-05-25T09:33:30.040Z,22.94
2023-05-25T09:34:30.024Z,23.08
2023-05-25T09:35:30.014Z,23.23
2023-05-25T09:36:30.075Z,23.26
2023-05-25T09:37:30.099Z,22.60
2023-05-25T09:38:30.143Z,22.82
2023-05-25T09:39:30.029Z,22.93
2023-05-25T09:40:29.937Z,23.09
2023-05-25T09:41:30.000Z,23.27
2023-05-25T09:42:29.914Z,23.15
2023-05-25T09:43:41.914Z,23.09
2023-05-25T09:44:29.890Z,22.74
2023-05-25T09:45:29.891Z,22.93
2023-05-25T09:46:29.903Z,22.60
2023-05-25T09:47:29.919Z,22.67
2023-05-25T09:48:29.850Z,23.05
2023-05-25T09:49:29.825Z,22.62
2023-05-25T09:50:29.800Z,23.15
2023-05-25T09:51:29.791Z,23.65
2023-05-25T09:52:29.802Z,24.10
2023-05-25T09:53:29.763Z,23.79
2023-05-25T09:54:29.764Z,23.67
2023-05-25T09:55:36.876Z,23.62
2023-05-25T09:56:29.735Z,23.72
2023-05-25T09:57:29.718Z,23.32
2023-05-25T09:58:29.704Z,23.01
2023-05-25T09:59:29.700Z,23.32
2023-05-25T10:00:29.667Z,23.32
2023-05-25T10:01:29.701Z,23.09
2023-05-25T10:02:29.674Z,22.97
2023-05-25T10:03:29.637Z,23.31
2023-05-25T10:04:29.668Z,23.32
2023-05-25T10:05:29.610Z,23.42
2023-05-25T10:06:29.593Z,23.45
2023-05-25T10:07:29.594Z,22.84
2023-05-25T10:08:29.615Z,23.04
2023-05-25T10:09:30.421Z,23.60
2023-05-25T10:10:29.605Z,23.65
2023-05-25T10:11:29.536Z,23.71
2023-05-25T10:12:29.536Z,24.04
2023-05-25T10:13:29.533Z,23.79
2023-05-25T10:14:30.109Z,23.92
2023-05-25T10:15:29.494Z,23.80
2023-05-25T10:16:30.446Z,23.57
2023-05-25T10:17:29.506Z,23.60
2023-05-25T10:18:29.475Z,23.80
2023-05-25T10:19:29.442Z,23.76
2023-05-25T10:20:30.963Z,22.94
2023-05-25T10:21:29.425Z,22.60
2023-05-25T10:22:29.423Z,22.74
2023-05-25T10:23:29.412Z,23.19
2023-05-25T10:24:29.417Z,23.19
2023-05-25T10:25:29.403Z,23.38
2023-05-25T10:26:29.382Z,23.68
2023-05-25T10:27:29.370Z,23.67
2023-05-25T10:28:29.378Z,23.62
2023-05-25T10:29:29.358Z,23.94
2023-05-25T10:30:29.333Z,24.17
2023-05-25T10:31:29.485Z,24.50
2023-05-25T10:32:29.904Z,24.47
2023-05-25T10:34:29.298Z,23.75
2023-05-25T10:35:30.057Z,23.47
2023-05-25T10:36:29.279Z,23.71
2023-05-25T10:37:29.262Z,23.95
2023-05-25T10:38:29.259Z,24.00
2023-05-25T10:39:29.264Z,24.00
2023-05-25T10:40:29.257Z,24.07
2023-05-25T10:41:29.226Z,24.07
2023-05-25T10:42:29.223Z,24.10
2023-05-25T10:43:29.205Z,24.37
2023-05-25T10:44:29.207Z,24.50
2023-05-25T10:45:29.191Z,24.12
2023-05-25T10:46:29.231Z,23.72
2023-05-25T10:47:29.187Z,23.79
2023-05-25T10:48:29.177Z,23.61
2023-05-25T10:49:29.165Z,23.77
2023-05-25T10:50:29.171Z,23.70
2023-05-25T10:51:29.150Z,23.60
2023-05-25T10:52:29.185Z,23.65
2023-05-25T10:53:29.140Z,23.98
2023-05-25T10:54:29.140Z,23.90
2023-05-25T10:55:29.126Z,24.12
2023-05-25T10:56:29.121Z,24.32
2023-05-25T10:57:29.120Z,24.26
2023-05-25T10:58:29.114Z,24.12
2023-05-25T10:59:29.107Z,24.05
2023-05-25T11:00:29.160Z,23.67
2023-05-25T11:01:29.121Z,23.79
2023-05-25T11:02:29.130Z,23.70
2023-05-25T11:03:29.069Z,23.60
2023-05-25T11:04:29.112Z,23.58
2023-05-25T11:05:29.057Z,23.77
2023-05-25T11:06:29.048Z,23.75
2023-05-25T11:07:29.038Z,23.80
2023-05-25T11:08:29.041Z,24.10
2023-05-25T11:09:29.870Z,23.98
2023-05-25T11:10:29.023Z,23.57
2023-05-25T11:11:29.017Z,23.53
2023-05-25T11:12:29.035Z,23.71
2023-05-25T11:13:29.006Z,24.00
2023-05-25T11:14:29.000Z,24.07
2023-05-25T11:15:29.021Z,24.12
2023-05-25T11:16:29.093Z,24.07
2023-05-25T11:17:29.056Z,24.08
2023-05-25T11:18:28.979Z,23.77
2023-05-25T11:19:28.976Z,23.58
2023-05-25T11:20:28.967Z,23.61
2023-05-25T11:21:28.976Z,23.32
2023-05-25T11:22:28.975Z,23.26
2023-05-25T11:23:28.949Z,23.70
2023-05-25T11:24:28.946Z,23.85
2023-05-25T11:25:29.141Z,23.90
2023-05-25T11:26:28.935Z,24.07
2023-05-25T11:27:28.928Z,24.16
2023-05-25T11:28:28.926Z,24.52
2023-05-25T11:29:28.960Z,24.57
2023-05-25T11:30:28.909Z,24.47
2023-05-25T11:31:29.041Z,24.37
2023-05-25T11:32:29.015Z,24.31
2023-05-25T11:33:28.896Z,24.29
2023-05-25T11:34:28.897Z,24.23
2023-05-25T11:35:28.893Z,24.23
2023-05-25T11:36:28.903Z,24.41
2023-05-25T11:37:29.140Z,24.45
2023-05-25T11:38:28.884Z,24.44
2023-05-25T11:39:28.874Z,24.29
2023-05-25T11:40:28.875Z,24.19
2023-05-25T11:41:28.861Z,24.34
2023-05-25T11:42:28.863Z,24.22
2023-05-25T11:43:28.853Z,23.80
2023-05-25T11:44:28.856Z,23.80
2023-05-25T11:45:28.841Z,23.52
2023-05-25T11:46:28.909Z,23.68
2023-05-25T11:47:30.223Z,23.60
2023-05-25T11:48:28.843Z,23.79
2023-05-25T11:49:28.834Z,24.12
2023-05-25T11:50:28.832Z,24.13
2023-05-25T11:51:28.823Z,24.24
2023-05-25T11:52:28.824Z,24.57
2023-05-25T11:53:28.823Z,24.57
2023-05-25T11:54:28.822Z,24.26
2023-05-25T11:55:28.808Z,24.45
2023-05-25T11:56:35.647Z,24.64
2023-05-25T11:57:28.794Z,24.90
2023-05-25T11:58:28.801Z,24.85
2023-05-25T11:59:30.498Z,24.77
2023-05-25T12:00:28.808Z,24.39
2023-05-25T12:01:28.784Z,24.31
2023-05-25T12:02:28.823Z,24.50
2023-05-25T12:03:28.830Z,24.47
2023-05-25T12:04:29.005Z,24.35
2023-05-25T12:05:28.880Z,24.17
2023-05-25T12:06:28.815Z,24.41
2023-05-25T12:07:28.756Z,24.56
2023-05-25T12:08:28.764Z,24.63
2023-05-25T12:09:28.768Z,24.56
2023-05-25T12:10:28.761Z,24.68
2023-05-25T12:11:29.417Z,24.68
2023-05-25T12:12:28.753Z,24.42
2023-05-25T12:13:28.786Z,24.53
2023-05-25T12:14:28.750Z,24.64
2023-05-25T12:15:28.735Z,24.47
2023-05-25T12:16:28.944Z,24.41
2023-05-25T12:17:28.810Z,24.49
2023-05-25T12:18:28.741Z,24.23
2023-05-25T12:19:28.726Z,24.08
2023-05-25T12:20:28.743Z,24.08
2023-05-25T12:21:28.716Z,24.26
2023-05-25T12:22:28.729Z,24.17
2023-05-25T12:23:28.730Z,24.07
2023-05-25T12:24:28.712Z,24.34
2023-05-25T12:25:35.711Z,24.41
2023-05-25T12:26:28.706Z,24.45
2023-05-25T12:27:28.696Z,24.49
2023-05-25T12:28:28.695Z,24.61
2023-05-25T12:29:28.695Z,24.75
2023-05-25T12:30:28.694Z,24.94
2023-05-25T12:31:28.769Z,25.06
2023-05-25T12:32:28.728Z,25.28
2023-05-25T12:33:28.676Z,25.37
2023-05-25T12:34:28.685Z,25.49
2023-05-25T12:35:28.676Z,25.52
2023-05-25T12:36:28.683Z,25.39
2023-05-25T12:37:28.668Z,25.09
2023-05-25T12:38:28.704Z,25.20
2023-05-25T12:39:28.677Z,25.19
2023-05-25T12:40:28.657Z,25.09
2023-05-25T12:41:28.665Z,25.13
2023-05-25T12:42:28.656Z,25.28
2023-05-25T12:43:28.644Z,25.27
2023-05-25T12:44:28.679Z,25.37
2023-05-25T12:45:28.649Z,25.16
2023-05-25T12:46:28.654Z,25.00
2023-05-25T12:47:28.866Z,25.05
2023-05-25T12:48:28.715Z,25.02
2023-05-25T12:49:28.661Z,25.19
2023-05-25T12:50:29.470Z,25.06
2023-05-25T12:51:28.656Z,25.32
2023-05-25T12:52:28.655Z,25.75
2023-05-25T12:53:28.623Z,25.59
2023-05-25T12:54:28.626Z,25.82
2023-05-25T12:55:28.623Z,25.86
2023-05-25T12:56:28.630Z,25.74
2023-05-25T12:57:28.617Z,25.65
2023-05-25T12:58:28.647Z,25.53
2023-05-25T12:59:28.600Z,25.74
2023-05-25T13:00:28.663Z,25.71
2023-05-25T13:01:28.612Z,25.99
2023-05-25T13:02:28.934Z,25.83
2023-05-25T13:03:28.656Z,25.79
2023-05-25T13:04:28.608Z,25.97
2023-05-25T13:05:28.633Z,26.04